Grass Valley, Oregon
Current Conditions -  °F | °C
As of 11:53 PM on Sunday 23 Nov 2014 (Local Time) from KDLS Reporting Station
Clear Clear  
Wind Chill: 50°   Ceiling: Unl
Heat Index: 50°   Visibility: 10mi
Dew Point: 42°   Wind: 13mph
Humidity: 74%   Direction: 310°NW
Pressure: 30.29"   Gusts: NA
Location:  45.36°N, 120.79°W
Report Text: KDLS 240753Z AUTO 31011KT 10SM CLR 10/06 A3029 RMK AO2 SLP258 T01000056 401560044 $
Loading
Personal Weather Stations






























Interactive Weather Map New forecast layout! Learn more

10-Day Weather Forecast

Advertisements
Track Severe Weather on mobile